Home > Products > Valid Products > TAF

000
FTUS44 KAMA 271500 AAA
TAFDHT
TAF AMD
KDHT 271537Z 2716/2812 04025G35KT 2SM RA BR OVC008
     FM271800 02022G32KT 6SM -RA BR OVC012
     FM280000 04015KT 6SM -RA BR OVC010
     FM281000 34010KT P6SM OVC010=



000
FTUS44 KAMA 271300 AAA
TAFAMA
TAF AMD
KAMA 271311Z 2713/2812 04015G22KT 5SM RA BR OVC006
     FM271800 02025G35KT 6SM -RA BR OVC010
     FM280000 36016KT 6SM -RA BR OVC008=



000
FTUS44 KAMA 271100 RRA
TAFDHT
TAF
KDHT 271141Z 2712/2812 04016G24KT 4SM -RA BR OVC006
     FM271800 02022G32KT 6SM -RA BR OVC012
     FM280000 04015KT 6SM -RA BR OVC010
     FM281000 34010KT P6SM OVC010=



000
FTUS44 KAMA 271100 RRA
TAFAMA
TAF
KAMA 271141Z 2712/2812 04015G22KT 6SM -RA BR OVC006
     FM271800 02025G35KT 6SM -RA BR OVC010
     FM280000 36016KT 6SM -RA BR OVC008=



000
FTUS44 KAMA 271100 RRA
TAFGUY
TAF
KGUY 271141Z 2712/2812 04016G24KT 5SM -RA BR OVC006
     FM271800 02018G28KT 6SM -RA BR OVC012
     FM280000 03010KT 6SM -RA BR OVC010
     FM280800 35008KT P6SM OVC010=



000
FTUS44 KAMA 271100 RRA
TAFGUY
TAF
KGUY 271141Z 2712/2812 04016G24KT 5SM -RA BR OVC006
     FM271800 02018G28KT 6SM -RA BR OVC012
     FM280000 03010KT 6SM -RA BR OVC010
     FM280800 35008KT P6SM OVC010=



000
FTUS44 KAMA 271100 RRA
TAFDHT
TAF
KDHT 271141Z 2712/2812 04016G24KT 4SM -RA BR OVC006
     FM271800 02022G32KT 6SM -RA BR OVC012
     FM280000 04015KT 6SM -RA BR OVC010
     FM281000 34010KT P6SM OVC010=



000
FTUS44 KAMA 271100 RRA
TAFAMA
TAF
KAMA 271141Z 2712/2812 04015G22KT 6SM -RA BR OVC006
     FM271800 02025G35KT 6SM -RA BR OVC010
     FM280000 36016KT 6SM -RA BR OVC008=



000
FTUS44 KAMA 270900 AAA
TAFGUY
TAF AMD
KGUY 270902Z 2709/2806 04016KT 4SM -RA BR OVC004
     FM271800 02018G25KT P6SM VCSH BKN015
     FM280000 01015KT P6SM SCT015 BKN035=



000
FTUS44 KAMA 270900 AAA
TAFGUY
TAF AMD
KGUY 270902Z 2709/2806 04016KT 4SM -RA BR OVC004
     FM271800 02018G25KT P6SM VCSH BKN015
     FM280000 01015KT P6SM SCT015 BKN035=



000
FTUS44 KAMA 270800 AAB
TAFDHT
TAF AMD
KDHT 270859Z 2709/2806 05018G26KT 4SM -RA BR BKN010 OVC025
     FM271000 02022G30KT 6SM -RA BR BKN006
     FM272100 02024G34KT P6SM VCSH BKN015
     FM280000 02016KT P6SM SCT015 OVC050=



000
FTUS44 KAMA 270800 AAC
TAFAMA
TAF AMD
KAMA 270859Z 2709/2806 04020G30KT 6SM -RA OVC005
     FM271800 02024G34KT 4SM -SHRA BR OVC006
     FM280000 01018KT P6SM SCT015 BKN025=



000
FTUS44 KAMA 270800 AAA
TAFDHT
TAF AMD
KDHT 270844Z 2709/2806 05018G26KT 4SM -RA BR SCT005 BKN012
     FM271000 02022G30KT 6SM -RA BR BKN006
     FM272100 02024G34KT P6SM VCSH BKN015
     FM280000 02016KT P6SM SCT015 OVC050=



000
FTUS44 KAMA 270800 AAB
TAFAMA
TAF AMD
KAMA 270832Z 2709/2806 04015KT 6SM -RA OVC006
     FM271800 02024G34KT 4SM -SHRA BR OVC006
     FM280000 01018KT P6SM SCT015 BKN025=



000
FTUS44 KAMA 270800 AAB
TAFAMA
TAF AMD
KAMA 270832Z 2709/2806 04015KT 6SM -RA OVC006
     FM271800 02024G34KT 4SM -SHRA BR OVC006
     FM280000 01018KT P6SM SCT015 BKN025=



000
FTUS44 KAMA 270800 AAA
TAFAMA
TAF AMD
KAMA 270814Z 2708/2806 04015KT 6SM -RA OVC004
     FM271800 02024G34KT 4SM -SHRA BR OVC006
     FM280000 01018KT P6SM SCT015 BKN025=



000
FTUS44 KAMA 270500
TAFAMA
TAF
KAMA 270536Z 2706/2806 04015KT P6SM BKN008 OVC016
     FM270700 02018G26KT 5SM -SHRA BR BKN006
     FM271800 02021G30KT 4SM -SHRA BR OVC006
     FM280000 01018KT P6SM SCT015 BKN025=



000
FTUS44 KAMA 270500
TAFDHT
TAF
KDHT 270536Z 2706/2806 06018G26KT P6SM OVC005
     FM270900 02022G30KT 5SM -SHRA BR BKN006
     FM272100 02024G34KT P6SM VCSH BKN015
     FM280000 02016KT P6SM SCT015 OVC050=



000
FTUS44 KAMA 270500
TAFGUY
TAF
KGUY 270536Z 2706/2806 05016G24KT P6SM OVC004
     FM271000 04018G26KT 5SM -SHRA OVC004
     FM271800 02018G25KT P6SM VCSH BKN015
     FM280000 01015KT P6SM SCT015 BKN035=



000
FTUS44 KAMA 270400 AAC
TAFAMA
TAF AMD
KAMA 270458Z 2705/2724 04015G22KT P6SM BKN005 OVC012
     FM270800 02015G25KT 5SM SHRA BR OVC010
     FM271800 02021G30KT 3SM SHRA BR OVC007=



000
FTUS44 KAMA 270400 AAC
TAFAMA
TAF AMD
KAMA 270458Z 2705/2724 04015G22KT P6SM BKN005 OVC012
     FM270800 02015G25KT 5SM SHRA BR OVC010
     FM271800 02021G30KT 3SM SHRA BR OVC007=



000
FTUS44 KAMA 270400 AAB
TAFAMA
TAF AMD
KAMA 270432Z 2705/2724 04015G25KT P6SM OVC002
     FM270800 02015G25KT 5SM SHRA BR OVC010
     FM271800 02021G30KT 3SM SHRA BR OVC007=



000
FTUS44 KAMA 270400 AAB
TAFAMA
TAF AMD
KAMA 270432Z 2705/2724 04015G25KT P6SM OVC002
     FM270800 02015G25KT 5SM SHRA BR OVC010
     FM271800 02021G30KT 3SM SHRA BR OVC007=



000
FTUS44 KAMA 270400 AAC
TAFDHT
TAF AMD
KDHT 270430Z 2705/2724 06016G24KT P6SM OVC005
     FM270800 02025G35KT 5SM SHRA BR OVC007=



000
FTUS44 KAMA 270300 AAB
TAFDHT
TAF AMD
KDHT 270306Z 2703/2724 07020G28KT P6SM SCT005 BKN090
     FM270800 02025G35KT 5SM SHRA BR OVC007=



000
FTUS44 KAMA 270300 AAB
TAFDHT
TAF AMD
KDHT 270306Z 2703/2724 07020G28KT P6SM SCT005 BKN090
     FM270800 02025G35KT 5SM SHRA BR OVC007=



000
FTUS44 KAMA 270100 AAA
TAFGUY
TAF AMD
KGUY 270150Z 2702/2724 05013KT P6SM -RA VCTS OVC005CB
     FM270500 03020G30KT 3SM -SHRA BR OVC005=



000
FTUS44 KAMA 270100 AAA
TAFAMA
TAF AMD
KAMA 270137Z 2702/2724 05016G27KT 6SM BR VCSH BKN003
      TEMPO 2702/2704 4SM SHRA BKN010
     FM270400 03015G25KT P6SM BKN010
      TEMPO 2704/2708 3SM TSRA BR OVC010CB
     FM270800 02015G25KT 5SM SHRA BR OVC010
     FM271800 02021G30KT 3SM SHRA BR OVC007=



000
FTUS44 KAMA 270100 AAA
TAFAMA
TAF AMD
KAMA 270137Z 2702/2724 05016G27KT 6SM BR VCSH BKN003
      TEMPO 2702/2704 4SM SHRA BKN010
     FM270400 03015G25KT P6SM BKN010
      TEMPO 2704/2708 3SM TSRA BR OVC010CB
     FM270800 02015G25KT 5SM SHRA BR OVC010
     FM271800 02021G30KT 3SM SHRA BR OVC007=



000
FTUS44 KAMA 270100 AAA
TAFDHT
TAF AMD
KDHT 270112Z 2701/2724 07020G30KT P6SM VCTS OVC008CB
      TEMPO 2701/2705 3SM TSRA BKN015CB
     FM270800 02025G35KT 5SM SHRA BR OVC007=



000
FTUS44 KAMA 262300
TAFAMA
TAF
KAMA 262320Z 2700/2724 06015G25KT P6SM VCTS BKN050CB
      TEMPO 2700/2704 VRB28G39KT 1SM TSRA BKN010CB
     FM270400 03015G25KT P6SM BKN050
      TEMPO 2704/2708 3SM TSRA BR OVC010CB
     FM270800 02015G25KT 5SM SHRA BR OVC010
     FM271800 02021G30KT 3SM SHRA BR OVC007=



000
FTUS44 KAMA 262300
TAFDHT
TAF
KDHT 262320Z 2700/2724 03018G28KT P6SM OVC015
      TEMPO 2704/2708 3SM TSRA BKN010CB
     FM270800 02025G35KT 5SM SHRA BR OVC007=



000
FTUS44 KAMA 262300
TAFDHT
TAF
KDHT 262320Z 2700/2724 03018G28KT P6SM OVC015
      TEMPO 2704/2708 3SM TSRA BKN010CB
     FM270800 02025G35KT 5SM SHRA BR OVC007=



000
FTUS44 KAMA 262300
TAFGUY
TAF
KGUY 262320Z 2700/2724 03015KT 3SM -SHRA BR OVC010
      TEMPO 2702/2706 1SM -SHRA BR OVC007
     FM271000 03020G30KT 3SM -SHRA BR OVC005=



000
FTUS44 KAMA 262300
TAFGUY
TAF
KGUY 262320Z 2700/2724 03015KT 3SM -SHRA BR OVC010
      TEMPO 2702/2706 1SM -SHRA BR OVC007
     FM271000 03020G30KT 3SM -SHRA BR OVC005=



000
FTUS44 KAMA 262300
TAFAMA
TAF
KAMA 262320Z 2700/2724 06015G25KT P6SM VCTS BKN050CB
      TEMPO 2700/2704 VRB28G39KT 1SM TSRA BKN010CB
     FM270400 03015G25KT P6SM BKN050
      TEMPO 2704/2708 3SM TSRA BR OVC010CB
     FM270800 02015G25KT 5SM SHRA BR OVC010
     FM271800 02021G30KT 3SM SHRA BR OVC007=



000
FTUS44 KAMA 262100 AAB
TAFGUY
TAF AMD
KGUY 262115Z 2621/2718 05012G21KT P6SM BKN008
     FM270200 02020G30KT P6SM +SHRA OVC008=



000
FTUS44 KAMA 262100 AAA
TAFAMA
TAF AMD
KAMA 262109Z 2621/2718 21015G25KT P6SM VCTS SCT060CB BKN100
      TEMPO 2621/2624 21025G43KT -SHRA BKN050
     FM270300 03018KT 6SM +SHRA BR OVC010=



000
FTUS44 KAMA 261900 AAA
TAFDHT
TAF AMD
KDHT 261952Z 2620/2718 05018G33KT 6SM -TSRA BKN050CB
     FM262130 06018G30KT P6SM VCTS BKN040CB
     FM270200 04025G35KT 5SM +SHRA BR OVC010=



000
FTUS44 KAMA 261800 AAA
TAFGUY
TAF AMD
KGUY 261859Z 2619/2718 08012G20KT P6SM BKN011
     FM270200 02020G30KT P6SM +SHRA OVC008=



000
FTUS44 KAMA 261700 RRA
TAFGUY
TAF
KGUY 261757Z 2618/2718 08012G20KT P6SM BKN009 OVC015
     FM270200 02020G30KT P6SM +SHRA OVC008=



000
FTUS44 KAMA 261700 RRA
TAFGUY
TAF
KGUY 261757Z 2618/2718 08012G20KT P6SM BKN009 OVC015
     FM270200 02020G30KT P6SM +SHRA OVC008=



000
FTUS44 KAMA 261700 RRA
TAFDHT
TAF
KDHT 261749Z 2618/2718 07015KT P6SM FEW060 BKN120
     FM262100 05018G30KT P6SM VCTS BKN040CB
     FM270200 04025G35KT 5SM +SHRA BR OVC010=



000
FTUS44 KAMA 261700 RRA
TAFDHT
TAF
KDHT 261749Z 2618/2718 07015KT P6SM FEW060 BKN120
     FM262100 05018G30KT P6SM VCTS BKN040CB
     FM270200 04025G35KT 5SM +SHRA BR OVC010=



000
FTUS44 KAMA 261700 RRA
TAFAMA
TAF
KAMA 261741Z 2618/2718 10012G20KT P6SM FEW060 BKN120
     FM262100 07015G25KT P6SM VCTS SCT060CB BKN100
     FM270300 03018KT 6SM +SHRA BR OVC010=



000
FTUS44 KAMA 261700 RRA
TAFAMA
TAF
KAMA 261741Z 2618/2718 10012G20KT P6SM FEW060 BKN120
     FM262100 07015G25KT P6SM VCTS SCT060CB BKN100
     FM270300 03018KT 6SM +SHRA BR OVC010=



000
FTUS44 KAMA 261600 AAB
TAFDHT
TAF AMD
KDHT 261602Z 2616/2712 08013KT P6SM BKN150
     FM262100 07019G29KT P6SM VCTS BKN030CB
     FM270200 04021G31KT 4SM TSRA BR OVC010CB
     FM270500 02021G31KT 5SM -SHRA BR OVC007=



000
FTUS44 KAMA 261500 AAA
TAFGUY
TAF AMD
KGUY 261527Z 2615/2712 09013G20KT P6SM BKN009 OVC015
     FM262000 05015G24KT P6SM VCTS BKN012CB
     FM270100 04018G28KT 4SM TSRA BR OVC010CB
     FM270500 03015G25KT 5SM -SHRA BR OVC005=



000
FTUS44 KAMA 261400 AAA
TAFDHT
TAF AMD
KDHT 261436Z 2615/2712 08013KT 6SM HZ BKN006 OVC015
     FM262100 07019G29KT P6SM VCTS BKN030CB
     FM270200 04021G31KT 4SM TSRA BR OVC010CB
     FM270500 02021G31KT 5SM -SHRA BR OVC007=



000
FTUS44 KAMA 261100
TAFAMA
TAF
KAMA 261139Z 2612/2712 20008KT P6SM SCT150 BKN300
     FM261500 11015KT P6SM SCT040 SCT120 BKN300
     FM261800 10018G28KT P6SM SCT040 BKN120
     FM270200 04017G26KT P6SM VCTS OVC015CB
     FM270600 03016G26KT 6SM -SHRA BR OVC010=



000
FTUS44 KAMA 261100
TAFGUY
TAF
KGUY 261139Z 2612/2712 10014G20KT P6SM OVC008
     FM261500 09013G20KT P6SM OVC015
     FM262000 05015G24KT P6SM VCTS BKN012CB
     FM270100 04018G28KT 4SM TSRA BR OVC010CB
     FM270500 03015G25KT 5SM -SHRA BR OVC005=



000
FTUS44 KAMA 261100
TAFDHT
TAF
KDHT 261139Z 2612/2712 03010KT P6SM SCT010 SCT120 BKN300
     FM261500 08013KT P6SM SCT020 BKN100 OVC300
     FM262100 07019G29KT P6SM VCTS BKN030CB
     FM270200 04021G31KT 4SM TSRA BR OVC010CB
     FM270500 02021G31KT 5SM -SHRA BR OVC007=



000
FTUS44 KAMA 261100
TAFGUY
TAF
KGUY 261139Z 2612/2712 10014G20KT P6SM OVC008
     FM261500 09013G20KT P6SM OVC015
     FM262000 05015G24KT P6SM VCTS BKN012CB
     FM270100 04018G28KT 4SM TSRA BR OVC010CB
     FM270500 03015G25KT 5SM -SHRA BR OVC005=



000
FTUS44 KAMA 261100
TAFDHT
TAF
KDHT 261139Z 2612/2712 03010KT P6SM SCT010 SCT120 BKN300
     FM261500 08013KT P6SM SCT020 BKN100 OVC300
     FM262100 07019G29KT P6SM VCTS BKN030CB
     FM270200 04021G31KT 4SM TSRA BR OVC010CB
     FM270500 02021G31KT 5SM -SHRA BR OVC007=



000
FTUS44 KAMA 261100
TAFAMA
TAF
KAMA 261139Z 2612/2712 20008KT P6SM SCT150 BKN300
     FM261500 11015KT P6SM SCT040 SCT120 BKN300
     FM261800 10018G28KT P6SM SCT040 BKN120
     FM270200 04017G26KT P6SM VCTS OVC015CB
     FM270600 03016G26KT 6SM -SHRA BR OVC010=



000
FTUS44 KAMA 261000 AAA
TAFGUY
TAF AMD
KGUY 261015Z 2610/2706 09011KT P6SM OVC007
      TEMPO 2610/2613 OVC010
     FM261300 08012KT P6SM OVC010
     FM262000 06016KT P6SM VCTS BKN015CB OVC040
     FM270200 04017G27KT 4SM TSRA BR OVC010CB=



000
FTUS44 KAMA 261000 AAA
TAFGUY
TAF AMD
KGUY 261015Z 2610/2706 09011KT P6SM OVC007
      TEMPO 2610/2613 OVC010
     FM261300 08012KT P6SM OVC010
     FM262000 06016KT P6SM VCTS BKN015CB OVC040
     FM270200 04017G27KT 4SM TSRA BR OVC010CB=



000
FTUS44 KAMA 260500
TAFAMA
TAF
KAMA 260534Z 2606/2706 22008KT P6SM SCT150
     FM261400 11014KT P6SM SCT040 BKN120
     FM261700 08018G28KT P6SM SCT015 BKN040
     FM270100 03019G29KT P6SM VCTS OVC015CB=



000
FTUS44 KAMA 260500
TAFGUY
TAF
KGUY 260534Z 2606/2706 09011KT P6SM SCT040 BKN120
     FM260800 08011KT P6SM SCT015 OVC040
      TEMPO 2609/2613 OVC015
     FM261300 08012KT P6SM OVC010
     FM262000 06016KT P6SM VCTS BKN015CB OVC040
     FM270200 04017G27KT 4SM TSRA BR OVC010CB=



000
FTUS44 KAMA 260500
TAFDHT
TAF
KDHT 260534Z 2606/2706 20009KT P6SM SCT120
     FM260800 10008KT P6SM SCT040 BKN120
     FM261400 07014KT P6SM SCT015 OVC040
     FM262000 08019G29KT P6SM VCTS BKN015CB
     FM270200 05018G28KT 3SM TSRA BR OVC010CB=



000
FTUS44 KAMA 252300
TAFGUY
TAF
KGUY 252320Z 2600/2624 12010KT P6SM FEW120
     FM260200 10010KT P6SM SCT120
     FM261100 09015KT P6SM BKN015 OVC100
     FM262000 08016KT P6SM VCTS BKN030CB OVC120=



000
FTUS44 KAMA 252300
TAFGUY
TAF
KGUY 252320Z 2600/2624 12010KT P6SM FEW120
     FM260200 10010KT P6SM SCT120
     FM261100 09015KT P6SM BKN015 OVC100
     FM262000 08016KT P6SM VCTS BKN030CB OVC120=



000
FTUS44 KAMA 252300
TAFDHT
TAF
KDHT 252320Z 2600/2624 20011KT P6SM SCT120
     FM260500 13008KT P6SM BKN150
     FM261400 14014KT P6SM SCT050 BKN120
     FM262000 10016G26KT P6SM VCTS BKN050CB=



000
FTUS44 KAMA 252300
TAFDHT
TAF
KDHT 252320Z 2600/2624 20011KT P6SM SCT120
     FM260500 13008KT P6SM BKN150
     FM261400 14014KT P6SM SCT050 BKN120
     FM262000 10016G26KT P6SM VCTS BKN050CB=



000
FTUS44 KAMA 252300
TAFAMA
TAF
KAMA 252320Z 2600/2624 22011KT P6SM SCT120
     FM260500 17008KT P6SM SCT120
     FM261400 13014KT P6SM SCT120 BKN200
     FM261700 14019G29KT P6SM SCT040 BKN120=



000
FTUS44 KAMA 252300
TAFAMA
TAF
KAMA 252320Z 2600/2624 22011KT P6SM SCT120
     FM260500 17008KT P6SM SCT120
     FM261400 13014KT P6SM SCT120 BKN200
     FM261700 14019G29KT P6SM SCT040 BKN120=



000
FTUS44 KAMA 251700 RRA
TAFGUY
TAF
KGUY 251746Z 2518/2618 33009KT P6SM SKC
     FM252100 18010KT P6SM FEW120
     FM260200 09011KT P6SM SCT120
     FM261200 09015KT P6SM BKN015 OVC100=



000
FTUS44 KAMA 251700 RRA
TAFAMA
TAF
KAMA 251746Z 2518/2618 22014KT P6SM SKC
     FM260100 22010KT P6SM SCT120=



000
FTUS44 KAMA 251700 RRA
TAFDHT
TAF
KDHT 251746Z 2518/2618 22011KT P6SM SKC
     FM260900 27009KT P6SM BKN150=



000
FTUS44 KAMA 251100
TAFAMA
TAF
KAMA 251133Z 2512/2612 27014G20KT P6SM SKC
     FM252000 24014G21KT P6SM SKC
     FM260100 22010KT P6SM FEW300=



000
FTUS44 KAMA 251100
TAFDHT
TAF
KDHT 251133Z 2512/2612 28010KT P6SM SKC
     FM251800 22014G21KT P6SM SKC
     FM260100 22010KT P6SM SCT300
     FM260900 27009KT P6SM SCT300=



000
FTUS44 KAMA 251100
TAFGUY
TAF
KGUY 251133Z 2512/2612 29012KT P6SM SKC
     FM251600 33009KT P6SM SKC
     FM252100 16009KT P6SM SCT300
     FM260100 11010KT P6SM SCT150 BKN300=



000
FTUS44 KAMA 250500
TAFGUY
TAF
KGUY 250537Z 2506/2606 29010KT P6SM SCT090
     FM252000 23010KT P6SM SCT100
     FM260100 16011KT P6SM SCT250=



000
FTUS44 KAMA 250500
TAFAMA
TAF
KAMA 250537Z 2506/2606 26017G26KT P6SM SKC
     FM252000 23017G25KT P6SM FEW100
     FM260100 17015KT P6SM FEW250=



000
FTUS44 KAMA 250500
TAFDHT
TAF
KDHT 250537Z 2506/2606 28012KT P6SM SKC
     FM251800 23015G23KT P6SM FEW100
     FM260100 18012KT P6SM SCT250=



000
FTUS44 KAMA 242300
TAFAMA
TAF
KAMA 242337Z 2500/2524 23028G40KT P6SM SKC
     FM250100 23020G28KT P6SM SCT120
     FM250600 26017KT P6SM SKC=



000
FTUS44 KAMA 242300
TAFGUY
TAF
KGUY 242337Z 2500/2524 27018G26KT P6SM SCT110
     FM250100 27014KT P6SM SCT120
     FM250500 28011KT P6SM FEW200=



000
FTUS44 KAMA 242300
TAFDHT
TAF
KDHT 242337Z 2500/2524 25020G29KT P6SM SCT110
     FM250100 26017G24KT P6SM SCT120
     FM250500 28015KT P6SM SKC=



000
FTUS44 KAMA 241900 AAA
TAFGUY
TAF AMD
KGUY 241909Z 2419/2518 23023G33KT P6SM SCT100
     FM250100 25014KT P6SM SCT120
     FM250500 28010KT P6SM FEW200=



000
FTUS44 KAMA 241900 AAA
TAFGUY
TAF AMD
KGUY 241909Z 2419/2518 23023G33KT P6SM SCT100
     FM250100 25014KT P6SM SCT120
     FM250500 28010KT P6SM FEW200=



000
FTUS44 KAMA 241700
TAFAMA
TAF
KAMA 241722Z 2418/2518 23030G40KT P6SM SCT080
     FM250100 23018G28KT P6SM SCT120
     FM250600 26016KT P6SM SKC=



000
FTUS44 KAMA 241700
TAFGUY
TAF
KGUY 241722Z 2418/2518 19010KT P6SM SCT100
     FM242000 24023G33KT P6SM SCT100
     FM250100 25014KT P6SM SCT120
     FM250500 28010KT P6SM FEW200=



000
FTUS44 KAMA 241700
TAFDHT
TAF
KDHT 241722Z 2418/2518 23027G39KT P6SM SCT100
     FM250100 25018G28KT P6SM SCT120
     FM250500 28015KT P6SM SKC=



000
FTUS44 KAMA 241700
TAFAMA
TAF
KAMA 241722Z 2418/2518 23030G40KT P6SM SCT080
     FM250100 23018G28KT P6SM SCT120
     FM250600 26016KT P6SM SKC=



000
FTUS44 KAMA 241700
TAFGUY
TAF
KGUY 241722Z 2418/2518 19010KT P6SM SCT100
     FM242000 24023G33KT P6SM SCT100
     FM250100 25014KT P6SM SCT120
     FM250500 28010KT P6SM FEW200=



000
FTUS44 KAMA 241700
TAFDHT
TAF
KDHT 241722Z 2418/2518 23027G39KT P6SM SCT100
     FM250100 25018G28KT P6SM SCT120
     FM250500 28015KT P6SM SKC=



    US Dept of Commerce
    National Oceanic and Atmospheric Administration
    National Weather Service
    1325 East West Highway
    Silver Spring, MD 20910
    Page Author: NWS Internet Services Team
Disclaimer
Information Quality
Credits
Glossary
Privacy Policy
Freedom of Information Act (FOIA)
About Us
Career Opportunities